Terminal Aerodrome Forecast
Issued by NWS

Home | Current Version | Previous Version | Text Only | Print | Product List | Glossary On
Versions: 1 2 3 4 5 6 7 8 9 10 11 12 13 14 15 16 17 18 19 20 21 22 23 24 25 26 27 28 29 30 31 32 33
000
FTUS43 KOAX 240737 CCA
TAFSNY
TAF COR
KSNY 240737Z 2408/2506 08008KT P6SM BKN010 BKN025 OVC040
      TEMPO 2408/2409 1SM BR OVC002
     FM240900 11008KT 3SM -DZ BR BKN003 OVC007
     FM241100 12008KT 2SM -DZ BR OVC003
     FM241500 12009KT 5SM BR BKN007 OVC015
     FM241800 13010KT P6SM VCTS BKN025CB=

USA.gov is the U.S. government's official web portal to all federal, state and local government web resources and services.